createdAt,value
2022-07-31T00:06:46.422Z,20.00
2022-07-31T00:17:08.014Z,19.44
2022-07-31T00:27:29.652Z,19.96
2022-07-31T00:37:54.809Z,19.69
2022-07-31T00:48:23.892Z,19.81
2022-07-31T00:58:45.432Z,19.64
2022-07-31T01:09:07.011Z,19.52
2022-07-31T01:19:37.886Z,19.54
2022-07-31T01:30:03.550Z,19.50
2022-07-31T01:40:35.592Z,19.69
2022-07-31T01:50:58.906Z,19.76
2022-07-31T02:01:27.023Z,19.83
2022-07-31T02:11:54.440Z,19.49
2022-07-31T02:22:16.836Z,19.25
2022-07-31T02:32:39.327Z,19.28
2022-07-31T02:43:01.100Z,19.33
2022-07-31T02:53:24.758Z,19.13
2022-07-31T03:03:46.290Z,19.28
2022-07-31T03:14:10.568Z,19.23
2022-07-31T03:24:32.223Z,19.11
2022-07-31T03:34:56.959Z,19.22
2022-07-31T03:45:20.888Z,19.18
2022-07-31T03:55:44.055Z,19.09
2022-07-31T04:06:05.635Z,19.05
2022-07-31T04:16:27.179Z,18.97
2022-07-31T04:26:50.510Z,18.77
2022-07-31T04:37:12.093Z,18.73
2022-07-31T04:47:33.588Z,18.90
2022-07-31T04:57:55.118Z,19.32
2022-07-31T05:08:16.677Z,19.61
2022-07-31T05:18:38.309Z,19.43
2022-07-31T05:29:00.188Z,19.53
2022-07-31T05:39:21.756Z,19.61
2022-07-31T05:49:43.397Z,19.88
2022-07-31T06:00:05.690Z,19.97
2022-07-31T06:10:28.285Z,20.17
2022-07-31T06:20:49.893Z,20.51
2022-07-31T06:31:21.664Z,20.66
2022-07-31T06:41:49.294Z,20.74
2022-07-31T06:52:10.924Z,20.89
2022-07-31T07:02:32.475Z,21.16
2022-07-31T07:12:54.326Z,21.30
2022-07-31T07:23:15.935Z,21.50
2022-07-31T07:33:41.263Z,21.65
2022-07-31T07:44:05.135Z,21.80
2022-07-31T07:54:30.027Z,22.12
2022-07-31T08:04:52.016Z,22.30
2022-07-31T08:15:13.568Z,22.38
2022-07-31T08:25:35.104Z,22.48
2022-07-31T08:35:59.056Z,22.49
2022-07-31T08:46:22.138Z,22.55
2022-07-31T08:56:44.015Z,22.78
2022-07-31T09:07:06.210Z,22.94
2022-07-31T09:17:53.711Z,23.27
2022-07-31T09:28:15.917Z,23.79
2022-07-31T09:38:43.431Z,23.97
2022-07-31T09:49:05.196Z,24.08
2022-07-31T09:59:26.865Z,24.15
2022-07-31T10:09:48.727Z,24.46
2022-07-31T10:20:17.384Z,24.43
2022-07-31T10:30:39.119Z,24.74
2022-07-31T10:41:17.345Z,24.75
2022-07-31T10:51:50.107Z,24.92
2022-07-31T11:02:11.804Z,25.12
2022-07-31T11:12:33.444Z,24.72
2022-07-31T11:23:06.422Z,24.51
2022-07-31T11:33:42.170Z,24.08
2022-07-31T11:44:04.973Z,23.95
2022-07-31T11:54:26.744Z,23.65
2022-07-31T12:04:49.227Z,23.16
2022-07-31T12:15:18.863Z,22.67
2022-07-31T12:25:42.230Z,22.29
2022-07-31T12:36:12.309Z,22.31
2022-07-31T12:46:36.749Z,21.97
2022-07-31T12:56:58.279Z,21.77
2022-07-31T13:07:19.892Z,21.72
2022-07-31T13:17:47.792Z,21.62
2022-07-31T13:28:12.373Z,21.58
2022-07-31T13:38:34.059Z,21.89
2022-07-31T13:48:59.118Z,21.90
2022-07-31T13:59:21.535Z,21.72
2022-07-31T14:09:51.473Z,21.50
2022-07-31T14:20:17.183Z,21.52
2022-07-31T14:30:45.592Z,20.80
2022-07-31T14:41:08.037Z,20.55
2022-07-31T14:51:29.628Z,20.31
2022-07-31T15:01:51.150Z,20.05
2022-07-31T15:12:16.762Z,19.89
2022-07-31T15:22:38.374Z,19.84
2022-07-31T15:33:02.172Z,20.04
2022-07-31T15:43:23.714Z,20.03
2022-07-31T15:53:45.211Z,19.98
2022-07-31T16:04:16.609Z,20.07
2022-07-31T16:14:38.579Z,20.10
2022-07-31T16:25:00.331Z,20.10
2022-07-31T16:35:22.553Z,19.98
2022-07-31T16:45:44.137Z,20.06
2022-07-31T16:56:06.462Z,20.20
2022-07-31T17:06:36.346Z,20.15
2022-07-31T17:16:59.276Z,20.24
2022-07-31T17:27:22.511Z,20.32
2022-07-31T17:37:45.178Z,20.39
2022-07-31T17:48:07.813Z,20.50
2022-07-31T17:58:29.370Z,20.50
2022-07-31T18:08:51.202Z,20.63
2022-07-31T18:19:13.614Z,20.54
2022-07-31T18:29:35.176Z,20.39
2022-07-31T18:39:59.581Z,20.47
2022-07-31T18:51:00.587Z,20.60
2022-07-31T19:01:03.496Z,20.59
2022-07-31T19:11:25.148Z,20.64
2022-07-31T19:21:46.724Z,20.77
2022-07-31T19:32:08.613Z,20.40
2022-07-31T19:42:30.317Z,20.13
2022-07-31T19:52:52.626Z,20.26
2022-07-31T20:03:14.308Z,20.21
2022-07-31T20:13:38.526Z,20.19
2022-07-31T20:24:01.421Z,20.07
2022-07-31T20:34:23.632Z,19.86
2022-07-31T20:44:45.321Z,19.92
2022-07-31T20:55:07.070Z,19.90
2022-07-31T21:05:30.646Z,19.88
2022-07-31T21:15:53.198Z,19.83
2022-07-31T21:26:15.582Z,19.74
2022-07-31T21:36:37.430Z,19.67
2022-07-31T21:47:01.478Z,19.68
2022-07-31T21:57:25.236Z,19.63
2022-07-31T22:07:49.608Z,19.65
2022-07-31T22:18:11.374Z,19.68
2022-07-31T22:28:33.070Z,19.67
2022-07-31T22:38:55.042Z,19.76
2022-07-31T22:49:18.106Z,19.56
2022-07-31T22:59:40.084Z,19.62
2022-07-31T23:10:02.414Z,19.58
2022-07-31T23:20:23.948Z,19.46
2022-07-31T23:30:45.494Z,19.44
2022-07-31T23:41:07.457Z,19.35
2022-07-31T23:51:29.054Z,19.27
